createdAt,value
2018-11-28T00:00:36.866Z,14.57
2018-11-28T00:03:08.118Z,14.80
2018-11-28T00:05:37.328Z,13.53
2018-11-28T00:08:06.553Z,15.57
2018-11-28T00:10:35.733Z,15.60
2018-11-28T00:13:05.059Z,16.33
2018-11-28T00:15:34.280Z,14.80
2018-11-28T00:18:03.611Z,14.10
2018-11-28T00:20:33.140Z,15.90
2018-11-28T00:23:02.367Z,14.20
2018-11-28T00:25:31.593Z,16.33
2018-11-28T00:28:00.772Z,15.23
2018-11-28T00:30:30.187Z,15.37
2018-11-28T00:32:59.462Z,14.40
2018-11-28T00:35:29.143Z,15.67
2018-11-28T00:37:58.378Z,13.73
2018-11-28T00:40:27.564Z,14.10
2018-11-28T00:42:56.757Z,14.30
2018-11-28T00:45:26.333Z,13.60
2018-11-28T00:47:55.515Z,14.77
2018-11-28T00:50:26.498Z,14.17
2018-11-28T00:52:55.721Z,13.77
2018-11-28T00:55:24.919Z,14.90
2018-11-28T00:57:54.088Z,14.67
2018-11-28T01:00:27.351Z,14.40
2018-11-28T01:02:56.482Z,14.43
2018-11-28T01:05:25.750Z,13.13
2018-11-28T01:07:56.043Z,13.23
2018-11-28T01:10:25.980Z,14.40
2018-11-28T01:12:55.610Z,15.27
2018-11-28T01:15:24.825Z,15.27
2018-11-28T01:17:54.035Z,14.27
2018-11-28T01:20:24.126Z,11.70
2018-11-28T01:22:53.252Z,12.13
2018-11-28T01:25:23.113Z,13.60
2018-11-28T01:27:52.595Z,12.47
2018-11-28T01:30:24.400Z,11.90
2018-11-28T01:32:53.631Z,13.37
2018-11-28T01:35:23.211Z,12.70
2018-11-28T01:37:52.420Z,12.70
2018-11-28T01:40:23.539Z,13.83
2018-11-28T01:42:53.187Z,13.07
2018-11-28T01:45:23.601Z,14.00
2018-11-28T01:47:52.809Z,14.07
2018-11-28T01:50:22.689Z,13.83
2018-11-28T01:52:51.907Z,12.80
2018-11-28T01:55:22.409Z,13.73
2018-11-28T01:57:52.052Z,12.73
2018-11-28T02:00:26.355Z,15.40
2018-11-28T02:02:59.246Z,14.13
2018-11-28T02:05:28.399Z,14.10
2018-11-28T02:07:57.579Z,13.57
2018-11-28T02:10:26.745Z,14.30
2018-11-28T02:12:56.007Z,12.67
2018-11-28T02:15:27.272Z,13.73
2018-11-28T02:17:58.264Z,13.73
2018-11-28T02:20:27.531Z,14.53
2018-11-28T02:22:56.832Z,14.87
2018-11-28T02:25:25.983Z,14.10
2018-11-28T02:27:55.170Z,14.53
2018-11-28T02:30:24.431Z,14.57
2018-11-28T02:32:53.629Z,13.00
2018-11-28T02:35:22.806Z,13.87
2018-11-28T02:37:52.016Z,13.50
2018-11-28T02:40:21.472Z,14.67
2018-11-28T02:42:51.199Z,12.97
2018-11-28T02:45:21.859Z,14.43
2018-11-28T02:47:52.264Z,12.60
2018-11-28T02:50:21.477Z,12.30
2018-11-28T02:52:50.676Z,12.27
2018-11-28T02:55:20.005Z,12.10
2018-11-28T02:57:50.827Z,11.23
2018-11-28T03:00:22.782Z,12.67
2018-11-28T03:02:52.085Z,12.73
2018-11-28T03:05:21.563Z,12.53
2018-11-28T03:07:50.715Z,12.23
2018-11-28T03:10:21.658Z,13.00
2018-11-28T03:12:51.055Z,13.10
2018-11-28T03:15:26.528Z,12.50
2018-11-28T03:17:55.771Z,11.23
2018-11-28T03:20:25.077Z,12.20
2018-11-28T03:22:54.214Z,11.20
2018-11-28T03:25:23.496Z,12.47
2018-11-28T03:27:52.678Z,10.87
2018-11-28T03:30:21.820Z,12.17
2018-11-28T03:32:51.085Z,11.60
2018-11-28T03:35:21.776Z,10.63
2018-11-28T03:37:49.355Z,10.17
2018-11-28T03:40:18.561Z,11.60
2018-11-28T03:42:47.744Z,10.33
2018-11-28T03:45:17.539Z,9.97
2018-11-28T03:47:47.048Z,10.10
2018-11-28T03:50:16.673Z,9.50
2018-11-28T03:52:45.877Z,9.80
2018-11-28T03:55:16.252Z,8.87
2018-11-28T03:57:47.150Z,9.40
2018-11-28T04:00:20.608Z,9.13
2018-11-28T04:02:50.519Z,10.20
2018-11-28T04:05:19.649Z,8.33
2018-11-28T04:07:48.854Z,8.73
2018-11-28T04:10:18.025Z,8.17
2018-11-28T04:12:47.233Z,9.47
2018-11-28T04:15:21.637Z,8.67
2018-11-28T04:17:50.857Z,9.03
2018-11-28T04:20:21.479Z,8.40
2018-11-28T04:22:50.672Z,7.03
2018-11-28T04:25:23.720Z,8.43
2018-11-28T04:27:53.284Z,8.20
2018-11-28T04:30:24.015Z,8.07
2018-11-28T04:32:54.755Z,7.57
2018-11-28T04:35:24.128Z,8.57
2018-11-28T04:37:53.303Z,7.50
2018-11-28T04:40:22.809Z,7.90
2018-11-28T04:42:51.952Z,8.23
2018-11-28T04:45:23.441Z,7.83
2018-11-28T04:47:54.375Z,8.87
2018-11-28T04:50:23.572Z,7.10
2018-11-28T04:52:52.740Z,8.17
2018-11-28T04:55:22.029Z,7.80
2018-11-28T04:57:51.176Z,7.33
2018-11-28T05:00:23.841Z,9.37
2018-11-28T05:02:56.466Z,7.77
2018-11-28T05:05:25.661Z,7.87
2018-11-28T05:07:56.063Z,7.53
2018-11-28T05:17:32.795Z,10.00
2018-11-28T05:20:02.102Z,10.37
2018-11-28T05:22:31.320Z,9.20
2018-11-28T05:25:00.521Z,9.47
2018-11-28T05:27:29.797Z,9.03
2018-11-28T05:29:58.963Z,9.57
2018-11-28T05:32:28.311Z,10.57
2018-11-28T05:34:57.502Z,10.40
2018-11-28T05:37:26.713Z,8.73
2018-11-28T05:39:55.895Z,10.27
2018-11-28T05:42:25.093Z,10.10
2018-11-28T05:44:54.306Z,9.87
2018-11-28T05:47:23.456Z,12.03
2018-11-28T05:49:52.692Z,10.90
2018-11-28T05:52:21.843Z,10.90
2018-11-28T05:54:51.002Z,11.13
2018-11-28T05:57:20.187Z,11.40
2018-11-28T05:59:49.384Z,12.90
2018-11-28T06:02:18.592Z,12.67
2018-11-28T06:04:47.883Z,16.23
2018-11-28T06:07:17.076Z,14.17
2018-11-28T06:09:46.241Z,16.03
2018-11-28T06:12:15.404Z,18.70
2018-11-28T06:14:44.547Z,16.33
2018-11-28T06:17:13.859Z,21.20
2018-11-28T06:19:43.172Z,20.23
2018-11-28T06:22:12.339Z,20.47
2018-11-28T06:24:41.776Z,19.80
2018-11-28T06:27:10.968Z,20.00
2018-11-28T06:29:40.120Z,22.60
2018-11-28T06:32:09.361Z,27.03
2018-11-28T06:34:38.515Z,23.03
2018-11-28T06:37:07.907Z,26.03
2018-11-28T06:39:37.060Z,23.73
2018-11-28T06:42:06.740Z,24.60
2018-11-28T06:44:35.901Z,23.10
2018-11-28T06:47:05.364Z,21.23
2018-11-28T06:49:34.544Z,23.03
2018-11-28T06:52:03.765Z,25.53
2018-11-28T06:54:32.939Z,26.13
2018-11-28T06:57:02.179Z,22.87
2018-11-28T06:59:31.361Z,25.03
2018-11-28T07:02:00.532Z,24.03
2018-11-28T07:04:29.699Z,22.60
2018-11-28T07:06:58.866Z,24.37
2018-11-28T07:09:28.035Z,23.03
2018-11-28T07:11:57.356Z,23.07
2018-11-28T07:14:26.550Z,22.77
2018-11-28T07:16:55.755Z,23.73
2018-11-28T07:19:24.942Z,23.43
2018-11-28T07:21:54.169Z,22.90
2018-11-28T07:24:23.361Z,22.90
2018-11-28T07:26:52.539Z,23.93
2018-11-28T07:29:21.837Z,23.33
2018-11-28T07:31:51.039Z,25.27
2018-11-28T07:34:20.230Z,24.97
2018-11-28T07:36:49.432Z,22.23
2018-11-28T07:39:18.585Z,22.80
2018-11-28T07:41:47.770Z,23.37
2018-11-28T07:44:16.916Z,24.27
2018-11-28T07:46:46.120Z,22.87
2018-11-28T07:49:15.307Z,23.03
2018-11-28T07:51:44.508Z,24.90
2018-11-28T07:54:13.651Z,22.70
2018-11-28T07:56:42.838Z,23.50
2018-11-28T07:59:12.000Z,22.20
2018-11-28T08:01:41.207Z,21.63
2018-11-28T08:04:10.420Z,23.07
2018-11-28T08:06:39.646Z,22.33
2018-11-28T08:09:09.204Z,22.57
2018-11-28T08:11:38.389Z,23.47
2018-11-28T08:14:07.525Z,23.87
2018-11-28T08:16:36.651Z,24.67
2018-11-28T08:19:06.232Z,24.60
2018-11-28T08:21:35.484Z,26.73
2018-11-28T08:24:04.864Z,25.03
2018-11-28T08:26:34.000Z,24.70
2018-11-28T08:29:03.148Z,26.53
2018-11-28T08:31:32.300Z,26.87
2018-11-28T08:34:01.485Z,27.67
2018-11-28T08:36:30.623Z,26.47
2018-11-28T08:38:59.783Z,25.03
2018-11-28T08:41:28.923Z,27.70
2018-11-28T08:43:58.079Z,27.30
2018-11-28T08:46:27.261Z,25.87
2018-11-28T08:48:56.452Z,25.47
2018-11-28T08:51:25.693Z,24.70
2018-11-28T08:53:54.865Z,27.20
2018-11-28T08:56:23.996Z,25.90
2018-11-28T08:58:53.164Z,26.00
2018-11-28T09:01:22.304Z,24.50
2018-11-28T09:03:51.611Z,32.30
2018-11-28T09:06:20.741Z,55.60
2018-11-28T09:08:49.955Z,26.97
2018-11-28T09:11:19.085Z,24.90
2018-11-28T09:13:48.247Z,25.27
2018-11-28T09:16:17.401Z,28.00
2018-11-28T09:18:46.547Z,29.10
2018-11-28T09:21:15.692Z,28.63
2018-11-28T09:23:44.835Z,28.90
2018-11-28T09:26:19.038Z,27.90
2018-11-28T09:28:48.827Z,27.17
2018-11-28T09:31:18.044Z,27.77
2018-11-28T09:33:47.199Z,57.00
2018-11-28T09:36:16.358Z,29.73
2018-11-28T09:38:45.560Z,26.87
2018-11-28T09:41:14.720Z,24.20
2018-11-28T09:43:43.941Z,25.70
2018-11-28T09:46:13.123Z,27.60
2018-11-28T09:48:42.315Z,33.50
2018-11-28T09:51:11.525Z,26.43
2018-11-28T09:53:40.757Z,27.17
2018-11-28T09:56:09.935Z,26.30
2018-11-28T09:58:39.112Z,26.33
2018-11-28T10:01:08.348Z,27.27
2018-11-28T10:03:37.544Z,26.17
2018-11-28T10:06:06.766Z,25.80
2018-11-28T10:08:35.929Z,27.03
2018-11-28T10:11:05.716Z,26.90
2018-11-28T10:13:34.859Z,25.23
2018-11-28T10:16:04.094Z,28.93
2018-11-28T10:18:33.324Z,28.03
2018-11-28T10:21:02.525Z,28.33
2018-11-28T10:23:31.728Z,27.97
2018-11-28T10:26:01.016Z,29.10
2018-11-28T10:28:30.219Z,29.00
2018-11-28T10:30:59.409Z,28.03
2018-11-28T10:33:28.644Z,26.70
2018-11-28T10:35:58.853Z,27.53
2018-11-28T10:38:28.049Z,27.83
2018-11-28T10:40:57.239Z,29.70
2018-11-28T10:43:26.497Z,30.83
2018-11-28T10:46:02.349Z,27.93
2018-11-28T10:48:31.583Z,30.73
2018-11-28T10:51:00.790Z,31.50
2018-11-28T10:53:29.975Z,29.93
2018-11-28T10:55:59.232Z,29.03
2018-11-28T10:58:28.412Z,29.33
2018-11-28T11:01:02.981Z,27.80
2018-11-28T11:04:39.372Z,33.57
2018-11-28T11:07:13.835Z,28.17
2018-11-28T11:09:48.226Z,29.50
2018-11-28T11:12:22.587Z,29.00
2018-11-28T11:14:51.784Z,28.33
2018-11-28T11:17:21.100Z,28.17
2018-11-28T11:19:50.263Z,27.47
2018-11-28T11:22:19.423Z,31.57
2018-11-28T11:24:48.583Z,27.70
2018-11-28T11:27:17.784Z,31.07
2018-11-28T11:29:47.028Z,29.40
2018-11-28T11:32:16.240Z,31.03
2018-11-28T11:34:45.391Z,28.23
2018-11-28T11:37:14.643Z,30.20
2018-11-28T11:39:43.838Z,30.00
2018-11-28T11:42:13.183Z,28.17
2018-11-28T11:44:42.352Z,30.03
2018-11-28T11:47:11.579Z,28.17
2018-11-28T11:49:40.739Z,29.20
2018-11-28T11:52:10.056Z,31.73
2018-11-28T11:54:39.232Z,32.30
2018-11-28T11:57:08.400Z,29.43
2018-11-28T11:59:37.596Z,32.27
2018-11-28T12:02:07.149Z,34.43
2018-11-28T12:04:36.340Z,31.47
2018-11-28T12:07:05.537Z,32.33
2018-11-28T12:09:34.761Z,30.83
2018-11-28T12:12:03.974Z,32.57
2018-11-28T12:14:33.214Z,32.17
2018-11-28T12:17:02.444Z,32.40
2018-11-28T12:19:31.625Z,31.70
2018-11-28T12:22:00.843Z,32.57
2018-11-28T12:24:30.108Z,35.80
2018-11-28T12:27:00.077Z,32.70
2018-11-28T12:29:28.543Z,29.53
2018-11-28T12:31:57.813Z,31.97
2018-11-28T12:34:26.995Z,32.53
2018-11-28T12:36:56.219Z,32.53
2018-11-28T12:39:25.437Z,29.20
2018-11-28T12:41:54.620Z,32.10
2018-11-28T12:44:23.795Z,33.53
2018-11-28T12:46:53.014Z,34.73
2018-11-28T12:49:22.209Z,32.10
2018-11-28T12:51:51.384Z,33.73
2018-11-28T12:54:20.571Z,32.03
2018-11-28T12:56:49.781Z,32.73
2018-11-28T12:59:18.984Z,35.93
2018-11-28T13:01:48.215Z,33.60
2018-11-28T13:04:17.444Z,32.83
2018-11-28T13:06:46.651Z,31.77
2018-11-28T13:09:15.836Z,33.57
2018-11-28T13:11:45.047Z,33.87
2018-11-28T13:14:14.275Z,33.03
2018-11-28T13:16:43.546Z,34.43
2018-11-28T13:19:12.766Z,33.80
2018-11-28T13:21:41.951Z,34.77
2018-11-28T13:24:11.122Z,35.70
2018-11-28T13:26:40.327Z,36.13
2018-11-28T13:29:09.521Z,36.53
2018-11-28T13:31:38.696Z,35.60
2018-11-28T13:34:07.875Z,35.03
2018-11-28T13:36:37.028Z,42.70
2018-11-28T13:39:07.620Z,35.07
2018-11-28T13:41:36.763Z,35.53
2018-11-28T13:44:06.170Z,36.20
2018-11-28T13:46:35.375Z,38.30
2018-11-28T13:49:04.960Z,36.17
2018-11-28T13:51:34.003Z,37.47
2018-11-28T13:54:20.708Z,39.60
2018-11-28T13:57:00.686Z,36.63
2018-11-28T13:59:01.619Z,38.63
2018-11-28T14:01:30.786Z,35.47
2018-11-28T14:03:59.930Z,38.43
2018-11-28T14:06:29.099Z,41.50
2018-11-28T14:08:58.316Z,40.13
2018-11-28T14:11:27.531Z,38.23
2018-11-28T14:13:56.687Z,34.47
2018-11-28T14:16:26.035Z,39.97
2018-11-28T14:18:55.355Z,35.03
2018-11-28T14:21:24.669Z,35.87
2018-11-28T14:23:53.824Z,33.90
2018-11-28T14:26:23.026Z,37.53
2018-11-28T14:28:52.277Z,37.10
2018-11-28T14:31:21.447Z,36.80
2018-11-28T14:33:51.003Z,37.60
2018-11-28T14:36:20.036Z,39.13
2018-11-28T14:38:49.213Z,34.77
2018-11-28T14:41:24.980Z,34.93
2018-11-28T14:43:54.135Z,33.20
2018-11-28T14:46:23.317Z,35.23
2018-11-28T14:48:52.484Z,45.70
2018-11-28T14:51:21.688Z,48.77
2018-11-28T14:53:50.840Z,34.93
2018-11-28T14:56:20.111Z,34.73
2018-11-28T14:58:49.610Z,33.23
2018-11-28T15:01:18.857Z,36.77
2018-11-28T15:03:48.374Z,32.00
2018-11-28T15:06:26.502Z,32.63
2018-11-28T15:09:59.913Z,32.00
2018-11-28T15:12:30.809Z,31.07
2018-11-28T15:15:00.080Z,32.77
2018-11-28T15:17:29.301Z,31.80
2018-11-28T15:19:58.457Z,32.10
2018-11-28T15:22:27.679Z,35.33
2018-11-28T15:24:56.836Z,35.97
2018-11-28T15:27:26.116Z,39.80
2018-11-28T15:29:55.279Z,31.93
2018-11-28T15:32:24.452Z,33.70
2018-11-28T15:34:57.887Z,33.87
2018-11-28T15:37:22.797Z,33.40
2018-11-28T15:39:55.812Z,32.53
2018-11-28T15:42:21.101Z,33.43
2018-11-28T15:44:50.244Z,32.53
2018-11-28T15:47:19.379Z,32.63
2018-11-28T15:49:48.558Z,31.97
2018-11-28T15:52:17.704Z,34.80
2018-11-28T15:54:46.876Z,30.67
2018-11-28T15:57:16.056Z,44.13
2018-11-28T15:59:45.255Z,32.33
2018-11-28T16:02:14.416Z,29.70
2018-11-28T16:04:43.551Z,28.30
2018-11-28T16:07:12.751Z,27.20
2018-11-28T16:09:47.191Z,28.40
2018-11-28T16:12:16.468Z,27.70
2018-11-28T16:14:45.620Z,29.80
2018-11-28T16:17:14.864Z,29.30
2018-11-28T16:19:44.084Z,33.00
2018-11-28T16:22:13.256Z,33.70
2018-11-28T16:24:42.468Z,34.70
2018-11-28T16:27:11.672Z,32.10
2018-11-28T16:29:40.846Z,30.10
2018-11-28T16:32:10.043Z,29.47
2018-11-28T16:34:39.231Z,28.30
2018-11-28T16:37:08.444Z,30.47
2018-11-28T16:39:37.699Z,28.43
2018-11-28T16:42:06.964Z,28.60
2018-11-28T16:44:36.157Z,31.07
2018-11-28T16:47:05.609Z,29.43
2018-11-28T16:49:34.865Z,29.77
2018-11-28T16:52:04.047Z,33.47
2018-11-28T16:54:33.252Z,28.27
2018-11-28T16:57:02.393Z,31.97
2018-11-28T16:59:31.559Z,31.53
2018-11-28T17:02:00.699Z,31.50
2018-11-28T17:04:29.942Z,29.67
2018-11-28T17:06:59.138Z,28.40
2018-11-28T17:09:28.263Z,28.93
2018-11-28T17:11:57.415Z,32.77
2018-11-28T17:14:26.614Z,34.10
2018-11-28T17:16:55.800Z,26.77
2018-11-28T17:19:24.972Z,28.43
2018-11-28T17:21:54.131Z,29.60
2018-11-28T17:24:23.287Z,31.87
2018-11-28T17:26:52.496Z,31.70
2018-11-28T17:29:21.685Z,29.07
2018-11-28T17:31:50.888Z,30.70
2018-11-28T17:34:20.125Z,31.53
2018-11-28T17:36:49.295Z,37.00
2018-11-28T17:39:18.480Z,41.87
2018-11-28T17:41:47.685Z,31.57
2018-11-28T17:44:16.820Z,32.63
2018-11-28T17:46:45.981Z,32.43
2018-11-28T17:49:15.165Z,31.70
2018-11-28T17:51:44.459Z,30.50
2018-11-28T17:54:13.623Z,31.40
2018-11-28T17:56:42.872Z,29.00
2018-11-28T17:59:12.077Z,32.07
2018-11-28T18:01:42.241Z,34.63
2018-11-28T18:04:10.454Z,33.43
2018-11-28T18:06:39.693Z,33.70
2018-11-28T18:09:11.832Z,33.97
2018-11-28T18:11:41.058Z,34.53
2018-11-28T18:14:10.261Z,31.93
2018-11-28T18:16:39.442Z,35.87
2018-11-28T18:19:08.639Z,34.60
2018-11-28T18:21:37.856Z,35.50
2018-11-28T18:24:07.020Z,32.37
2018-11-28T18:26:36.196Z,34.80
2018-11-28T18:29:05.505Z,36.33
2018-11-28T18:31:34.695Z,33.60
2018-11-28T18:34:03.891Z,37.80
2018-11-28T18:36:32.992Z,38.33
2018-11-28T18:39:02.157Z,37.33
2018-11-28T18:41:31.293Z,35.33
2018-11-28T18:44:07.595Z,37.13
2018-11-28T18:46:36.928Z,32.80
2018-11-28T18:49:06.252Z,36.43
2018-11-28T18:51:35.433Z,36.37
2018-11-28T18:54:04.648Z,32.30
2018-11-28T18:56:33.815Z,32.60
2018-11-28T18:59:02.960Z,33.17
2018-11-28T19:01:32.113Z,34.57
2018-11-28T19:04:01.240Z,36.70
2018-11-28T19:06:30.400Z,37.97
2018-11-28T19:08:59.680Z,40.27
2018-11-28T19:11:28.711Z,37.93
2018-11-28T19:13:57.967Z,33.13
2018-11-28T19:16:27.144Z,35.50
2018-11-28T19:18:56.295Z,37.83
2018-11-28T19:21:25.539Z,36.77
2018-11-28T19:23:54.722Z,38.13
2018-11-28T19:26:23.944Z,34.43
2018-11-28T19:28:53.132Z,38.13
2018-11-28T19:31:22.365Z,36.10
2018-11-28T19:33:52.120Z,36.47
2018-11-28T19:36:21.256Z,35.73
2018-11-28T19:38:50.392Z,35.07
2018-11-28T19:41:25.654Z,34.43
2018-11-28T19:43:54.961Z,35.03
2018-11-28T19:46:24.119Z,34.93
2018-11-28T19:48:53.275Z,34.73
2018-11-28T19:51:22.465Z,31.60
2018-11-28T19:53:51.607Z,32.03
2018-11-28T19:56:20.833Z,33.27
2018-11-28T19:58:50.000Z,34.90
2018-11-28T20:01:19.127Z,32.90
2018-11-28T20:03:48.290Z,34.47
2018-11-28T20:06:17.510Z,35.77
2018-11-28T20:08:46.867Z,35.93
2018-11-28T20:11:16.096Z,32.87
2018-11-28T20:13:45.329Z,35.07
2018-11-28T20:18:44.709Z,34.80
2018-11-28T20:23:43.136Z,35.13
2018-11-28T20:26:12.367Z,34.07
2018-11-28T20:28:41.531Z,33.17
2018-11-28T20:31:10.696Z,35.50
2018-11-28T20:33:39.854Z,32.77
2018-11-28T20:36:09.028Z,33.80
2018-11-28T20:38:39.266Z,34.80
2018-11-28T20:41:08.442Z,33.83
2018-11-28T20:43:37.831Z,34.93
2018-11-28T20:46:07.627Z,37.67
2018-11-28T20:48:36.768Z,34.80
2018-11-28T20:51:06.376Z,32.97
2018-11-28T20:53:35.549Z,31.90
2018-11-28T20:56:04.732Z,34.53
2018-11-28T20:58:33.954Z,36.77
2018-11-28T21:01:03.537Z,32.77
2018-11-28T21:03:32.356Z,35.10
2018-11-28T21:06:01.554Z,35.37
2018-11-28T21:08:30.708Z,32.20
2018-11-28T21:10:59.945Z,33.07
2018-11-28T21:13:29.185Z,34.60
2018-11-28T21:15:58.478Z,33.30
2018-11-28T21:18:27.639Z,32.90
2018-11-28T21:20:56.803Z,31.47
2018-11-28T21:23:26.569Z,36.30
2018-11-28T21:25:55.740Z,31.33
2018-11-28T21:28:25.041Z,31.10
2018-11-28T21:30:54.354Z,38.97
2018-11-28T21:33:23.547Z,35.97
2018-11-28T21:35:53.316Z,34.20
2018-11-28T21:38:22.500Z,32.63
2018-11-28T21:40:51.820Z,31.90
2018-11-28T21:43:20.998Z,33.60
2018-11-28T21:45:50.234Z,35.03
2018-11-28T21:48:19.471Z,35.00
2018-11-28T21:50:48.644Z,33.40
2018-11-28T21:53:17.814Z,35.30
2018-11-28T21:55:47.077Z,33.03
2018-11-28T21:58:16.385Z,34.10
2018-11-28T22:00:45.628Z,32.97
2018-11-28T22:03:14.899Z,33.03
2018-11-28T22:05:44.060Z,32.60
2018-11-28T22:08:13.345Z,33.63
2018-11-28T22:10:42.468Z,34.90
2018-11-28T22:13:11.732Z,33.20
2018-11-28T22:15:41.000Z,31.57
2018-11-28T22:18:10.551Z,32.23
2018-11-28T22:20:39.775Z,30.57
2018-11-28T22:23:09.139Z,32.43
2018-11-28T22:25:38.383Z,31.97
2018-11-28T22:28:08.193Z,33.17
2018-11-28T22:30:37.517Z,31.17
2018-11-28T22:33:08.477Z,33.47
2018-11-28T22:35:37.803Z,34.63
2018-11-28T22:38:07.277Z,33.93
2018-11-28T22:40:36.516Z,37.33
2018-11-28T22:43:05.840Z,34.30
2018-11-28T22:45:35.701Z,33.90
2018-11-28T22:48:04.976Z,34.03
2018-11-28T22:50:34.190Z,34.27
2018-11-28T22:53:03.420Z,34.53
2018-11-28T22:55:32.593Z,33.07
2018-11-28T22:58:01.975Z,30.07
2018-11-28T23:00:36.583Z,30.87
2018-11-28T23:03:08.825Z,35.40
2018-11-28T23:05:45.836Z,31.90
2018-11-28T23:08:16.488Z,35.63
2018-11-28T23:10:45.778Z,34.53
2018-11-28T23:13:16.614Z,31.63
2018-11-28T23:15:45.826Z,35.90
2018-11-28T23:18:15.047Z,34.73
2018-11-28T23:20:45.373Z,34.93
2018-11-28T23:23:13.525Z,34.40
2018-11-28T23:25:42.736Z,31.40
2018-11-28T23:28:11.972Z,33.67
2018-11-28T23:30:41.118Z,34.73
2018-11-28T23:33:15.990Z,38.37
2018-11-28T23:35:42.719Z,36.33
2018-11-28T23:38:11.989Z,33.30
2018-11-28T23:40:41.191Z,33.80
2018-11-28T23:43:10.513Z,33.87
2018-11-28T23:45:39.695Z,37.07
2018-11-28T23:48:08.984Z,33.90
2018-11-28T23:50:38.293Z,30.70
2018-11-28T23:53:07.598Z,31.30
2018-11-28T23:55:36.803Z,32.80
2018-11-28T23:58:06.267Z,32.77
